createdAt,value
2023-04-12T00:01:52.927Z,7.14
2023-04-12T00:04:29.311Z,7.08
2023-04-12T00:07:01.492Z,6.98
2023-04-12T00:09:32.499Z,6.84
2023-04-12T00:12:04.819Z,6.72
2023-04-12T00:14:35.562Z,6.61
2023-04-12T00:17:06.596Z,6.55
2023-04-12T00:19:42.174Z,6.46
2023-04-12T00:22:13.121Z,6.45
2023-04-12T00:24:44.591Z,6.36
2023-04-12T00:27:15.412Z,6.39
2023-04-12T00:29:47.081Z,6.38
2023-04-12T00:32:18.174Z,6.41
2023-04-12T00:34:51.573Z,6.39
2023-04-12T00:37:24.264Z,6.44
2023-04-12T00:39:54.952Z,6.43
2023-04-12T00:42:25.768Z,6.35
2023-04-12T00:44:56.796Z,6.21
2023-04-12T00:47:29.951Z,5.98
2023-04-12T00:50:04.214Z,6.05
2023-04-12T00:52:37.923Z,6.05
2023-04-12T00:55:10.610Z,6.13
2023-04-12T00:57:42.953Z,6.17
2023-04-12T01:00:17.412Z,6.25
2023-04-12T01:02:51.138Z,6.24
2023-04-12T01:05:27.539Z,6.20
2023-04-12T01:08:08.941Z,6.16
2023-04-12T01:10:49.568Z,6.21
2023-04-12T01:13:28.647Z,6.26
2023-04-12T01:16:03.559Z,6.29
2023-04-12T01:18:41.959Z,6.28
2023-04-12T01:21:22.675Z,6.17
2023-04-12T01:24:16.896Z,6.24
2023-04-12T01:26:50.126Z,6.27
2023-04-12T01:29:26.131Z,6.23
2023-04-12T01:32:02.714Z,6.23
2023-04-12T01:34:35.682Z,6.31
2023-04-12T01:37:08.147Z,6.37
2023-04-12T01:39:39.208Z,6.43
2023-04-12T01:42:10.002Z,6.43
2023-04-12T01:44:43.240Z,6.40
2023-04-12T01:47:14.142Z,6.34
2023-04-12T01:49:52.968Z,6.44
2023-04-12T01:52:24.584Z,6.49
2023-04-12T01:55:00.872Z,6.58
2023-04-12T01:57:32.545Z,6.58
2023-04-12T02:00:07.013Z,6.53
2023-04-12T02:05:16.673Z,6.61
2023-04-12T02:07:49.148Z,6.66
2023-04-12T02:10:31.786Z,6.76
2023-04-12T02:13:03.358Z,6.76
2023-04-12T02:15:37.551Z,6.84
2023-04-12T02:18:08.899Z,6.89
2023-04-12T02:20:41.102Z,6.84
2023-04-12T02:23:11.843Z,6.73
2023-04-12T02:25:42.866Z,6.78
2023-04-12T02:28:13.761Z,6.79
2023-04-12T02:30:48.068Z,6.87
2023-04-12T02:33:19.073Z,6.91
2023-04-12T02:35:50.046Z,6.89
2023-04-12T02:38:23.842Z,6.80
2023-04-12T02:40:54.688Z,6.86
2023-04-12T02:43:25.817Z,6.87
2023-04-12T02:46:06.129Z,6.91
2023-04-12T02:48:44.610Z,6.90
2023-04-12T02:51:15.814Z,6.90
2023-04-12T02:53:51.733Z,6.92
2023-04-12T02:56:26.538Z,6.90
2023-04-12T02:59:05.592Z,6.78
2023-04-12T03:01:59.227Z,6.70
2023-04-12T03:04:40.235Z,6.75
2023-04-12T03:07:16.584Z,6.82
2023-04-12T03:09:53.911Z,6.91
2023-04-12T03:12:27.265Z,6.90
2023-04-12T03:15:15.282Z,6.77
2023-04-12T03:17:52.808Z,6.84
2023-04-12T03:20:28.716Z,6.86
2023-04-12T03:23:05.065Z,6.89
2023-04-12T03:25:39.624Z,6.96
2023-04-12T03:28:26.756Z,6.89
2023-04-12T03:30:57.729Z,6.96
2023-04-12T03:33:37.798Z,6.94
2023-04-12T03:36:10.926Z,6.89
2023-04-12T03:38:42.199Z,6.94
2023-04-12T03:41:15.579Z,6.96
2023-04-12T03:43:46.228Z,6.99
2023-04-12T03:46:21.658Z,7.06
2023-04-12T03:49:02.803Z,7.01
2023-04-12T03:51:34.508Z,6.90
2023-04-12T03:54:07.430Z,6.94
2023-04-12T03:56:56.970Z,6.92
2023-04-12T03:59:37.880Z,6.82
2023-04-12T04:02:10.853Z,6.86
2023-04-12T04:04:50.660Z,6.88
2023-04-12T04:07:29.577Z,6.79
2023-04-12T04:10:00.582Z,6.83
2023-04-12T04:12:37.257Z,6.84
2023-04-12T04:15:09.753Z,6.51
2023-04-12T04:17:40.656Z,6.14
2023-04-12T04:20:15.106Z,5.78
2023-04-12T04:22:53.525Z,5.39
2023-04-12T04:25:30.363Z,5.17
2023-04-12T04:28:04.897Z,5.05
2023-04-12T04:30:39.222Z,5.12
2023-04-12T04:33:13.966Z,5.31
2023-04-12T04:35:47.833Z,5.48
2023-04-12T04:38:35.580Z,5.68
2023-04-12T04:41:12.699Z,5.89
2023-04-12T04:43:54.567Z,6.10
2023-04-12T04:46:30.793Z,6.28
2023-04-12T04:49:01.712Z,6.46
2023-04-12T04:51:35.588Z,6.61
2023-04-12T04:54:07.768Z,6.76
2023-04-12T04:56:41.444Z,6.89
2023-04-12T04:59:14.134Z,6.93
2023-04-12T05:01:45.085Z,7.11
2023-04-12T05:04:16.077Z,7.19
2023-04-12T05:06:49.552Z,7.28
2023-04-12T05:09:23.983Z,7.37
2023-04-12T05:11:59.777Z,7.44
2023-04-12T05:14:44.542Z,7.48
2023-04-12T05:17:17.702Z,7.53
2023-04-12T05:19:48.475Z,7.58
2023-04-12T05:22:22.947Z,7.64
2023-04-12T05:24:54.372Z,7.67
2023-04-12T05:27:25.483Z,7.71
2023-04-12T05:29:56.728Z,7.74
2023-04-12T05:32:29.385Z,7.77
2023-04-12T05:35:00.109Z,7.82
2023-04-12T05:37:34.570Z,7.86
2023-04-12T05:40:06.845Z,7.89
2023-04-12T05:42:38.159Z,7.93
2023-04-12T05:45:09.891Z,7.95
2023-04-12T05:47:41.382Z,7.97
2023-04-12T05:50:13.991Z,7.98
2023-04-12T05:52:48.846Z,7.98
2023-04-12T05:55:20.133Z,8.03
2023-04-12T05:57:51.888Z,7.98
2023-04-12T06:00:24.778Z,7.96
2023-04-12T06:02:55.440Z,8.06
2023-04-12T06:05:26.805Z,8.06
2023-04-12T06:08:01.197Z,8.08
2023-04-12T06:10:31.935Z,8.09
2023-04-12T06:13:02.720Z,8.11
2023-04-12T06:15:34.093Z,8.14
2023-04-12T06:18:04.983Z,8.16
2023-04-12T06:20:35.858Z,8.18
2023-04-12T06:23:11.251Z,8.19
2023-04-12T06:25:41.941Z,8.20
2023-04-12T06:28:13.403Z,8.22
2023-04-12T06:30:49.894Z,8.27
2023-04-12T06:33:22.875Z,8.30
2023-04-12T06:35:54.388Z,8.37
2023-04-12T06:38:27.776Z,8.41
2023-04-12T06:40:58.390Z,8.46
2023-04-12T06:43:29.381Z,8.51
2023-04-12T06:46:00.405Z,8.58
2023-04-12T06:48:31.098Z,8.60
2023-04-12T06:51:01.968Z,8.64
2023-04-12T06:53:35.437Z,8.67
2023-04-12T06:56:07.650Z,8.70
2023-04-12T06:58:38.401Z,8.72
2023-04-12T07:01:10.511Z,8.74
2023-04-12T07:03:41.346Z,8.79
2023-04-12T07:06:24.400Z,8.81
2023-04-12T07:08:59.437Z,8.83
2023-04-12T07:11:31.994Z,8.86
2023-04-12T07:14:02.705Z,8.87
2023-04-12T07:16:34.398Z,8.89
2023-04-12T07:19:05.069Z,8.77
2023-04-12T07:21:35.903Z,8.84
2023-04-12T07:24:10.033Z,8.82
2023-04-12T07:26:40.869Z,8.77
2023-04-12T07:29:11.561Z,8.75
2023-04-12T07:31:42.283Z,8.69
2023-04-12T07:34:13.121Z,8.65
2023-04-12T07:36:44.342Z,8.61
2023-04-12T07:39:17.557Z,8.56
2023-04-12T07:41:49.388Z,8.51
2023-04-12T07:44:20.301Z,8.47
2023-04-12T07:46:53.164Z,8.45
2023-04-12T07:49:23.876Z,8.43
2023-04-12T07:51:54.648Z,8.38
2023-04-12T07:54:29.971Z,8.38
2023-04-12T07:57:04.511Z,8.34
2023-04-12T07:59:35.191Z,8.34
2023-04-12T08:02:06.716Z,8.31
2023-04-12T08:04:38.612Z,8.28
2023-04-12T08:07:09.290Z,8.26
2023-04-12T08:09:42.645Z,8.24
2023-04-12T08:12:14.093Z,8.20
2023-04-12T08:14:45.036Z,8.16
2023-04-12T08:17:15.763Z,8.13
2023-04-12T08:19:46.674Z,8.08
2023-04-12T08:22:17.470Z,8.06
2023-04-12T08:24:50.828Z,8.07
2023-04-12T08:27:21.695Z,8.08
2023-04-12T08:29:52.352Z,8.10
2023-04-12T08:32:23.232Z,8.13
2023-04-12T08:34:53.931Z,8.12
2023-04-12T08:37:24.912Z,8.13
2023-04-12T08:39:58.332Z,8.11
2023-04-12T08:42:31.981Z,8.12
2023-04-12T08:45:03.046Z,8.15
2023-04-12T08:47:35.731Z,8.16
2023-04-12T08:50:09.735Z,8.13
2023-04-12T08:52:41.560Z,8.24
2023-04-12T08:55:15.325Z,8.29
2023-04-12T08:57:46.651Z,8.35
2023-04-12T09:00:21.303Z,8.38
2023-04-12T09:02:52.377Z,8.43
2023-04-12T09:05:23.518Z,8.47
2023-04-12T09:07:54.438Z,8.53
2023-04-12T09:10:38.321Z,8.59
2023-04-12T09:13:09.704Z,8.65
2023-04-12T09:15:51.081Z,8.72
2023-04-12T09:18:23.684Z,8.79
2023-04-12T09:20:54.415Z,8.80
2023-04-12T09:23:27.283Z,8.84
2023-04-12T09:26:00.654Z,8.86
2023-04-12T09:28:33.454Z,8.87
2023-04-12T09:31:05.005Z,8.87
2023-04-12T09:33:40.033Z,8.87
2023-04-12T09:36:14.710Z,8.87
2023-04-12T09:39:02.332Z,8.88
2023-04-12T09:41:36.856Z,8.91
2023-04-12T09:44:07.621Z,8.91
2023-04-12T09:46:38.389Z,8.90
2023-04-12T09:49:09.364Z,8.88
2023-04-12T09:51:40.301Z,8.89
2023-04-12T09:54:12.643Z,8.88
2023-04-12T09:56:47.197Z,8.86
2023-04-12T09:59:18.216Z,8.86
2023-04-12T10:01:49.857Z,8.88
2023-04-12T10:04:21.343Z,8.92
2023-04-12T10:06:52.703Z,8.94
2023-04-12T10:09:23.548Z,8.97
2023-04-12T10:11:58.052Z,9.03
2023-04-12T10:14:32.085Z,9.12
2023-04-12T10:17:04.221Z,9.22
2023-04-12T10:19:36.575Z,9.34
2023-04-12T10:22:07.228Z,9.45
2023-04-12T10:24:38.065Z,9.54
2023-04-12T10:27:11.942Z,9.64
2023-04-12T10:29:43.625Z,9.70
2023-04-12T10:32:25.610Z,9.77
2023-04-12T10:35:06.100Z,9.87
2023-04-12T10:37:54.032Z,9.98
2023-04-12T10:40:24.743Z,10.12
2023-04-12T10:43:27.833Z,10.28
2023-04-12T10:46:04.545Z,10.41
2023-04-12T10:48:36.339Z,10.51
2023-04-12T10:51:23.738Z,10.64
2023-04-12T10:53:54.992Z,10.78
2023-04-12T10:56:39.922Z,10.96
2023-04-12T10:59:15.247Z,11.14
2023-04-12T11:02:13.930Z,11.30
2023-04-12T11:05:14.805Z,11.50
2023-04-12T11:08:15.747Z,11.71
2023-04-12T11:11:23.703Z,12.13
2023-04-12T11:13:59.674Z,12.42
2023-04-12T11:16:32.927Z,12.74
2023-04-12T11:19:04.223Z,12.94
2023-04-12T11:21:35.149Z,13.11
2023-04-12T11:24:06.218Z,13.21
2023-04-12T11:26:38.077Z,13.26
2023-04-12T11:29:11.081Z,13.32
2023-04-12T11:31:44.492Z,13.40
2023-04-12T11:34:16.097Z,13.46
2023-04-12T11:36:48.326Z,13.58
2023-04-12T11:39:19.145Z,13.76
2023-04-12T11:41:51.374Z,13.85
2023-04-12T11:44:23.176Z,13.94
2023-04-12T11:46:57.366Z,13.96
2023-04-12T11:49:28.503Z,13.94
2023-04-12T11:52:06.252Z,13.89
2023-04-12T11:54:36.819Z,13.83
2023-04-12T11:57:07.880Z,13.77
2023-04-12T11:59:39.071Z,13.72
2023-04-12T12:02:22.847Z,13.71
2023-04-12T12:04:56.721Z,13.62
2023-04-12T12:07:27.962Z,13.55
2023-04-12T12:09:59.420Z,13.50
2023-04-12T12:12:30.914Z,13.47
2023-04-12T12:15:03.552Z,13.42
2023-04-12T12:17:39.780Z,13.30
2023-04-12T12:20:22.185Z,13.12
2023-04-12T12:22:53.093Z,12.88
2023-04-12T12:25:24.004Z,12.66
2023-04-12T12:28:01.055Z,12.50
2023-04-12T12:30:33.826Z,12.38
2023-04-12T12:33:07.251Z,12.27
2023-04-12T12:35:39.014Z,12.18
2023-04-12T12:38:10.818Z,12.13
2023-04-12T12:40:41.834Z,12.06
2023-04-12T12:43:21.711Z,12.01
2023-04-12T12:45:52.514Z,11.98
2023-04-12T12:48:26.151Z,11.97
2023-04-12T12:50:56.891Z,11.97
2023-04-12T12:53:29.097Z,11.98
2023-04-12T12:55:59.880Z,11.96
2023-04-12T12:58:30.835Z,11.92
2023-04-12T13:01:01.654Z,11.83
2023-04-12T13:03:35.185Z,11.75
2023-04-12T13:06:06.340Z,11.64
2023-04-12T13:08:37.549Z,11.57
2023-04-12T13:11:08.941Z,11.48
2023-04-12T13:13:39.739Z,11.48
2023-04-12T13:16:11.544Z,11.46
2023-04-12T13:18:44.857Z,11.48
2023-04-12T13:21:15.544Z,11.48
2023-04-12T13:23:47.275Z,11.50
2023-04-12T13:26:18.134Z,11.51
2023-04-12T13:28:48.944Z,11.53
2023-04-12T13:31:19.724Z,11.57
2023-04-12T13:33:53.132Z,11.60
2023-04-12T13:36:24.008Z,11.61
2023-04-12T13:38:54.698Z,11.66
2023-04-12T13:41:25.585Z,11.70
2023-04-12T13:43:56.249Z,11.77
2023-04-12T13:46:26.987Z,11.85
2023-04-12T13:49:01.087Z,11.92
2023-04-12T13:51:32.927Z,12.01
2023-04-12T13:54:04.374Z,12.09
2023-04-12T13:56:35.118Z,12.15
2023-04-12T13:59:06.577Z,12.19
2023-04-12T14:01:37.556Z,12.18
2023-04-12T14:04:11.036Z,12.13
2023-04-12T14:06:41.909Z,12.20
2023-04-12T14:09:12.636Z,12.22
2023-04-12T14:11:50.194Z,12.26
2023-04-12T14:14:20.903Z,12.30
2023-04-12T14:16:53.803Z,12.34
2023-04-12T14:19:27.637Z,12.31
2023-04-12T14:21:58.404Z,12.31
2023-04-12T14:24:29.703Z,12.30
2023-04-12T14:27:01.335Z,12.30
2023-04-12T14:29:32.344Z,12.30
2023-04-12T14:32:04.265Z,12.32
2023-04-12T14:34:38.366Z,12.33
2023-04-12T14:37:09.096Z,12.35
2023-04-12T14:39:39.840Z,12.36
2023-04-12T14:42:10.885Z,12.38
2023-04-12T14:44:41.556Z,12.40
2023-04-12T14:47:12.313Z,12.42
2023-04-12T14:49:45.991Z,12.41
2023-04-12T14:52:16.832Z,12.42
2023-04-12T14:54:47.708Z,12.41
2023-04-12T14:57:19.794Z,12.45
2023-04-12T14:59:50.674Z,12.43
2023-04-12T15:02:24.490Z,12.43
2023-04-12T15:04:59.092Z,12.45
2023-04-12T15:07:30.074Z,12.47
2023-04-12T15:10:01.128Z,12.47
2023-04-12T15:12:33.871Z,12.48
2023-04-12T15:15:06.346Z,12.47
2023-04-12T15:17:40.344Z,12.41
2023-04-12T15:20:16.155Z,12.39
2023-04-12T15:22:47.354Z,12.37
2023-04-12T15:25:18.152Z,12.35
2023-04-12T15:27:48.861Z,12.35
2023-04-12T15:30:19.924Z,12.35
2023-04-12T15:32:51.004Z,12.35
2023-04-12T15:35:26.884Z,12.38
2023-04-12T15:37:58.026Z,12.40
2023-04-12T15:40:30.233Z,12.41
2023-04-12T15:43:01.249Z,12.40
2023-04-12T15:45:32.183Z,12.35
2023-04-12T15:48:03.012Z,12.29
2023-04-12T15:50:36.729Z,12.25
2023-04-12T15:53:07.554Z,12.21
2023-04-12T15:55:38.266Z,12.17
2023-04-12T15:58:09.133Z,12.12
2023-04-12T16:00:39.991Z,12.09
2023-04-12T16:03:13.099Z,12.04
2023-04-12T16:05:46.642Z,11.99
2023-04-12T16:08:17.763Z,11.95
2023-04-12T16:10:48.814Z,11.92
2023-04-12T16:13:19.777Z,11.88
2023-04-12T16:15:50.707Z,11.87
2023-04-12T16:18:21.472Z,11.85
2023-04-12T16:20:54.908Z,11.82
2023-04-12T16:23:25.687Z,11.79
2023-04-12T16:25:56.689Z,11.74
2023-04-12T16:28:28.389Z,11.68
2023-04-12T16:30:59.381Z,11.37
2023-04-12T16:33:30.468Z,10.70
2023-04-12T16:36:04.454Z,9.78
2023-04-12T16:38:35.414Z,8.89
2023-04-12T16:41:07.618Z,8.18
2023-04-12T16:43:38.528Z,7.63
2023-04-12T16:46:10.037Z,7.36
2023-04-12T16:48:41.490Z,7.30
2023-04-12T16:51:15.000Z,7.25
2023-04-12T16:53:45.660Z,7.27
2023-04-12T16:56:17.319Z,7.38
2023-04-12T16:58:49.302Z,7.53
2023-04-12T17:01:20.831Z,7.68
2023-04-12T17:03:51.693Z,7.73
2023-04-12T17:06:25.070Z,7.63
2023-04-12T17:08:56.058Z,7.42
2023-04-12T17:11:26.984Z,7.14
2023-04-12T17:13:58.217Z,6.98
2023-04-12T17:16:29.456Z,6.83
2023-04-12T17:19:00.384Z,6.69
2023-04-12T17:21:43.308Z,6.48
2023-04-12T17:24:14.198Z,6.36
2023-04-12T17:26:45.124Z,6.27
2023-04-12T17:29:15.974Z,6.30
2023-04-12T17:31:50.846Z,6.34
2023-04-12T17:34:24.153Z,6.62
2023-04-12T17:36:57.723Z,6.91
2023-04-12T17:39:28.596Z,7.16
2023-04-12T17:41:59.212Z,7.49
2023-04-12T17:44:29.880Z,7.77
2023-04-12T17:47:00.601Z,8.00
2023-04-12T17:49:31.273Z,8.23
2023-04-12T17:52:04.630Z,8.44
2023-04-12T17:54:35.911Z,8.63
2023-04-12T17:57:07.083Z,8.80
2023-04-12T17:59:37.849Z,8.95
2023-04-12T18:02:11.429Z,9.09
2023-04-12T18:04:52.553Z,9.21
2023-04-12T18:07:27.438Z,9.33
2023-04-12T18:09:58.080Z,9.43
2023-04-12T18:12:28.871Z,9.23
2023-04-12T18:14:59.669Z,8.67
2023-04-12T18:17:30.528Z,8.01
2023-04-12T18:20:02.766Z,7.57
2023-04-12T18:22:36.754Z,7.25
2023-04-12T18:25:08.455Z,7.14
2023-04-12T18:27:39.246Z,7.34
2023-04-12T18:30:11.568Z,7.57
2023-04-12T18:32:42.241Z,7.57
2023-04-12T18:35:13.181Z,7.25
2023-04-12T18:37:47.219Z,7.03
2023-04-12T18:40:18.445Z,6.90
2023-04-12T18:42:52.100Z,6.88
2023-04-12T18:45:23.092Z,6.87
2023-04-12T18:47:57.317Z,6.85
2023-04-12T18:50:28.062Z,7.10
2023-04-12T18:53:01.635Z,7.32
2023-04-12T18:55:32.327Z,7.57
2023-04-12T18:58:06.426Z,7.80
2023-04-12T19:00:37.497Z,8.03
2023-04-12T19:03:08.547Z,8.23
2023-04-12T19:05:39.278Z,8.42
2023-04-12T19:08:14.240Z,8.58
2023-04-12T19:10:45.151Z,8.73
2023-04-12T19:13:16.397Z,8.83
2023-04-12T19:15:47.261Z,8.97
2023-04-12T19:18:18.117Z,9.08
2023-04-12T19:20:48.889Z,9.09
2023-04-12T19:23:22.774Z,9.21
2023-04-12T19:25:53.463Z,9.33
2023-04-12T19:28:24.270Z,9.39
2023-04-12T19:30:55.080Z,9.43
2023-04-12T19:33:29.242Z,9.48
2023-04-12T19:36:00.212Z,9.52
2023-04-12T19:38:33.614Z,9.57
2023-04-12T19:41:04.365Z,9.58
2023-04-12T19:43:35.174Z,9.60
2023-04-12T19:46:07.701Z,9.62
2023-04-12T19:48:38.586Z,9.62
2023-04-12T19:51:09.949Z,9.62
2023-04-12T19:53:43.626Z,9.63
2023-04-12T19:56:15.424Z,9.49
2023-04-12T19:58:46.275Z,9.48
2023-04-12T20:01:16.932Z,9.32
2023-04-12T20:03:47.857Z,9.32
2023-04-12T20:06:18.554Z,9.21
2023-04-12T20:08:52.043Z,9.21
2023-04-12T20:11:22.894Z,9.10
2023-04-12T20:13:54.143Z,9.15
2023-04-12T20:16:25.083Z,9.10
2023-04-12T20:18:58.042Z,9.12
2023-04-12T20:21:32.303Z,9.07
2023-04-12T20:24:08.459Z,9.11
2023-04-12T20:26:39.534Z,9.07
2023-04-12T20:29:10.933Z,9.08
2023-04-12T20:31:41.875Z,9.08
2023-04-12T20:34:12.644Z,9.09
2023-04-12T20:36:43.821Z,9.05
2023-04-12T20:39:17.961Z,9.09
2023-04-12T20:41:50.547Z,9.08
2023-04-12T20:44:22.430Z,9.10
2023-04-12T20:46:53.176Z,9.02
2023-04-12T20:49:28.174Z,8.82
2023-04-12T20:51:59.750Z,8.60
2023-04-12T20:54:33.530Z,8.60
2023-04-12T20:57:04.513Z,8.57
2023-04-12T20:59:36.284Z,8.54
2023-04-12T21:02:07.093Z,8.58
2023-04-12T21:04:39.757Z,8.44
2023-04-12T21:07:11.651Z,8.49
2023-04-12T21:09:45.139Z,8.49
2023-04-12T21:12:18.034Z,8.58
2023-04-12T21:14:50.645Z,8.56
2023-04-12T21:17:22.808Z,8.38
2023-04-12T21:19:53.981Z,8.17
2023-04-12T21:22:24.795Z,8.19
2023-04-12T21:24:58.674Z,8.17
2023-04-12T21:27:29.997Z,8.28
2023-04-12T21:30:01.624Z,8.24
2023-04-12T21:32:35.780Z,8.08
2023-04-12T21:35:08.052Z,7.88
2023-04-12T21:37:39.653Z,7.93
2023-04-12T21:40:14.020Z,7.97
2023-04-12T21:42:45.249Z,8.06
2023-04-12T21:45:16.894Z,8.03
2023-04-12T21:47:47.715Z,7.80
2023-04-12T21:50:18.598Z,7.56
2023-04-12T21:52:49.245Z,7.62
2023-04-12T21:55:22.597Z,7.59
2023-04-12T21:57:53.319Z,7.47
2023-04-12T22:00:27.414Z,7.54
2023-04-12T22:02:58.227Z,7.58
2023-04-12T22:05:29.129Z,7.68
2023-04-12T22:07:59.911Z,7.69
2023-04-12T22:10:34.905Z,7.58
2023-04-12T22:13:05.852Z,7.32
2023-04-12T22:15:36.590Z,7.40
2023-04-12T22:18:08.224Z,7.43
2023-04-12T22:20:38.841Z,7.54
2023-04-12T22:23:09.442Z,7.56
2023-04-12T22:25:43.408Z,7.35
2023-04-12T22:28:14.060Z,7.12
2023-04-12T22:30:47.075Z,7.14
2023-04-12T22:33:17.815Z,7.13
2023-04-12T22:35:48.519Z,7.22
2023-04-12T22:38:19.693Z,7.25
2023-04-12T22:40:55.344Z,7.15
2023-04-12T22:43:26.025Z,7.04
2023-04-12T22:45:57.232Z,7.06
2023-04-12T22:48:27.831Z,6.83
2023-04-12T22:50:58.553Z,6.33
2023-04-12T22:53:30.002Z,5.68
2023-04-12T22:56:03.269Z,5.13
2023-04-12T22:58:34.829Z,4.66
2023-04-12T23:01:06.737Z,4.40
2023-04-12T23:03:38.369Z,4.23
2023-04-12T23:06:09.986Z,4.20
2023-04-12T23:08:41.048Z,4.27
2023-04-12T23:11:14.792Z,4.41
2023-04-12T23:13:45.525Z,4.55
2023-04-12T23:16:16.542Z,4.60
2023-04-12T23:18:47.237Z,4.53
2023-04-12T23:21:18.286Z,4.38
2023-04-12T23:23:49.019Z,4.22
2023-04-12T23:26:22.903Z,4.01
2023-04-12T23:28:53.574Z,3.85
2023-04-12T23:31:24.365Z,3.73
2023-04-12T23:33:55.311Z,3.65
2023-04-12T23:36:25.997Z,3.59
2023-04-12T23:39:00.700Z,3.51
2023-04-12T23:41:34.153Z,3.41
2023-04-12T23:44:04.812Z,3.30
2023-04-12T23:46:35.646Z,3.28
2023-04-12T23:49:06.704Z,3.35
2023-04-12T23:51:37.500Z,3.43
2023-04-12T23:54:08.191Z,3.46
2023-04-12T23:56:41.665Z,3.47
2023-04-12T23:59:12.621Z,3.47
